createdAt,value
2022-09-24T00:01:40.959Z,15.60
2022-09-24T00:04:12.356Z,15.50
2022-09-24T00:06:44.572Z,15.60
2022-09-24T00:09:14.329Z,15.60
2022-09-24T00:11:41.309Z,15.50
2022-09-24T00:14:08.232Z,15.50
2022-09-24T00:16:36.664Z,15.50
2022-09-24T00:19:05.378Z,15.50
2022-09-24T00:21:36.311Z,15.40
2022-09-24T00:24:08.893Z,15.40
2022-09-24T00:26:51.635Z,15.40
2022-09-24T00:29:22.386Z,15.40
2022-09-24T00:31:51.697Z,15.40
2022-09-24T00:34:20.022Z,15.30
2022-09-24T00:36:47.166Z,15.40
2022-09-24T00:39:14.483Z,15.30
2022-09-24T00:41:47.777Z,15.30
2022-09-24T00:44:45.490Z,15.30
2022-09-24T00:47:40.927Z,15.20
2022-09-24T00:50:18.012Z,15.20
2022-09-24T00:52:56.238Z,15.20
2022-09-24T00:55:24.602Z,15.10
2022-09-24T00:58:02.411Z,15.10
2022-09-24T01:00:31.024Z,15.10
2022-09-24T01:03:05.241Z,15.00
2022-09-24T01:05:33.038Z,15.00
2022-09-24T01:08:00.194Z,15.00
2022-09-24T01:10:51.592Z,15.00
2022-09-24T01:13:32.033Z,14.90
2022-09-24T01:16:30.329Z,14.90
2022-09-24T01:19:41.202Z,14.80
2022-09-24T01:22:50.701Z,14.80
2022-09-24T01:25:58.495Z,14.80
2022-09-24T01:28:40.387Z,14.80
2022-09-24T01:31:35.638Z,14.70
2022-09-24T01:34:05.830Z,14.70
2022-09-24T01:36:36.373Z,14.70
2022-09-24T01:39:06.660Z,14.70
2022-09-24T01:41:35.332Z,14.70
2022-09-24T01:44:07.354Z,14.70
2022-09-24T01:46:39.371Z,14.60
2022-09-24T01:49:07.272Z,14.70
2022-09-24T01:51:50.950Z,14.70
2022-09-24T01:54:28.333Z,14.70
2022-09-24T01:57:12.062Z,14.70
2022-09-24T01:59:47.174Z,14.80
2022-09-24T02:02:31.087Z,14.70
2022-09-24T02:05:16.134Z,14.80
2022-09-24T02:07:54.327Z,14.80
2022-09-24T02:10:21.585Z,14.80
2022-09-24T02:12:59.317Z,14.80
2022-09-24T02:15:34.816Z,14.80
2022-09-24T02:18:08.779Z,14.80
2022-09-24T02:20:36.691Z,14.90
2022-09-24T02:23:06.019Z,14.90
2022-09-24T02:25:50.933Z,14.90
2022-09-24T02:28:19.292Z,14.90
2022-09-24T02:31:01.634Z,14.90
2022-09-24T02:33:51.289Z,14.90
2022-09-24T02:36:18.926Z,14.90
2022-09-24T02:38:47.086Z,14.90
2022-09-24T02:41:14.870Z,14.90
2022-09-24T02:43:41.635Z,14.80
2022-09-24T02:46:10.158Z,14.90
2022-09-24T02:48:37.544Z,14.90
2022-09-24T02:51:05.615Z,14.90
2022-09-24T02:53:33.404Z,14.90
2022-09-24T02:56:01.432Z,14.90
2022-09-24T02:58:29.611Z,14.80
2022-09-24T03:00:56.808Z,14.90
2022-09-24T03:03:24.507Z,14.80
2022-09-24T03:05:52.979Z,14.90
2022-09-24T03:08:21.734Z,14.90
2022-09-24T03:10:49.621Z,14.90
2022-09-24T03:13:19.670Z,14.90
2022-09-24T03:15:46.882Z,14.90
2022-09-24T03:18:14.596Z,14.90
2022-09-24T03:20:41.612Z,14.90
2022-09-24T03:23:08.530Z,14.90
2022-09-24T03:25:35.279Z,14.90
2022-09-24T03:28:02.398Z,14.90
2022-09-24T03:30:47.635Z,14.90
2022-09-24T03:33:14.369Z,14.80
2022-09-24T03:35:42.392Z,14.90
2022-09-24T03:38:09.135Z,14.90
2022-09-24T03:40:35.983Z,14.80
2022-09-24T03:43:02.930Z,14.70
2022-09-24T03:45:29.796Z,14.80
2022-09-24T03:47:56.576Z,14.80
2022-09-24T03:50:23.595Z,14.80
2022-09-24T03:52:50.298Z,14.80
2022-09-24T03:55:17.261Z,14.80
2022-09-24T03:57:44.005Z,14.80
2022-09-24T04:00:11.562Z,14.80
2022-09-24T04:02:40.718Z,14.80
2022-09-24T04:05:08.421Z,14.80
2022-09-24T04:07:35.147Z,14.70
2022-09-24T04:10:02.074Z,14.70
2022-09-24T04:12:29.605Z,14.80
2022-09-24T04:14:56.326Z,14.70
2022-09-24T04:17:23.049Z,14.70
2022-09-24T04:19:53.374Z,14.80
2022-09-24T04:22:20.087Z,14.70
2022-09-24T04:24:46.849Z,14.80
2022-09-24T04:27:13.562Z,14.60
2022-09-24T04:29:40.249Z,14.70
2022-09-24T04:32:07.846Z,14.70
2022-09-24T04:34:34.616Z,14.70
2022-09-24T04:37:01.322Z,14.70
2022-09-24T04:39:28.058Z,14.70
2022-09-24T04:41:55.118Z,14.70
2022-09-24T04:44:22.698Z,14.70
2022-09-24T04:46:50.533Z,14.70
2022-09-24T04:49:17.303Z,14.70
2022-09-24T04:51:44.019Z,14.60
2022-09-24T04:54:10.757Z,14.60
2022-09-24T04:56:37.517Z,14.70
2022-09-24T04:59:04.568Z,14.60
2022-09-24T05:01:31.747Z,14.70
2022-09-24T05:03:58.516Z,14.50
2022-09-24T05:06:25.243Z,14.70
2022-09-24T05:08:51.958Z,14.70
2022-09-24T05:11:19.828Z,14.60
2022-09-24T05:13:46.544Z,14.50
2022-09-24T05:16:13.379Z,14.60
2022-09-24T05:18:41.187Z,14.60
2022-09-24T05:21:08.027Z,14.60
2022-09-24T05:23:34.937Z,14.60
2022-09-24T05:26:20.243Z,14.60
2022-09-24T05:28:47.034Z,14.60
2022-09-24T05:31:13.874Z,14.60
2022-09-24T05:33:40.864Z,14.70
2022-09-24T05:36:08.305Z,14.70
2022-09-24T05:38:35.077Z,14.70
2022-09-24T05:41:01.894Z,14.60
2022-09-24T05:43:28.758Z,14.70
2022-09-24T05:45:57.079Z,14.70
2022-09-24T05:48:23.853Z,14.70
2022-09-24T05:50:51.984Z,14.60
2022-09-24T05:53:18.776Z,14.70
2022-09-24T05:55:45.497Z,14.70
2022-09-24T05:58:13.269Z,14.80
2022-09-24T06:00:40.214Z,14.80
2022-09-24T06:03:15.194Z,14.80
2022-09-24T06:05:50.524Z,14.90
2022-09-24T06:08:19.664Z,14.80
2022-09-24T06:10:47.283Z,14.90
2022-09-24T06:13:18.424Z,14.90
2022-09-24T06:15:45.536Z,14.90
2022-09-24T06:18:12.669Z,14.90
2022-09-24T06:20:40.145Z,14.90
2022-09-24T06:23:07.739Z,14.90
2022-09-24T06:25:34.525Z,14.90
2022-09-24T06:28:04.464Z,14.90
2022-09-24T06:30:41.346Z,15.00
2022-09-24T06:33:11.612Z,15.00
2022-09-24T06:35:41.767Z,15.00
2022-09-24T06:38:13.014Z,15.00
2022-09-24T06:40:40.875Z,15.10
2022-09-24T06:43:11.818Z,15.20
2022-09-24T06:45:38.819Z,15.10
2022-09-24T06:48:06.643Z,15.20
2022-09-24T06:50:35.141Z,15.20
2022-09-24T06:53:06.375Z,15.30
2022-09-24T06:55:35.857Z,15.30
2022-09-24T06:58:05.300Z,15.40
2022-09-24T07:00:32.293Z,15.40
2022-09-24T07:02:59.101Z,15.50
2022-09-24T07:05:25.928Z,15.50
2022-09-24T07:07:52.642Z,15.50
2022-09-24T07:10:19.613Z,15.50
2022-09-24T07:12:46.606Z,15.60
2022-09-24T07:15:13.323Z,15.60
2022-09-24T07:17:40.099Z,15.60
2022-09-24T07:20:07.657Z,15.70
2022-09-24T07:22:43.066Z,15.70
2022-09-24T07:25:12.143Z,15.70
2022-09-24T07:27:39.502Z,15.70
2022-09-24T07:30:08.325Z,15.70
2022-09-24T07:32:35.252Z,15.80
2022-09-24T07:35:02.367Z,15.80
2022-09-24T07:37:30.990Z,15.80
2022-09-24T07:39:57.780Z,15.90
2022-09-24T07:42:25.491Z,15.90
2022-09-24T07:44:53.078Z,15.90
2022-09-24T07:47:20.008Z,16.00
2022-09-24T07:49:46.734Z,16.00
2022-09-24T07:52:14.011Z,16.00
2022-09-24T07:54:41.114Z,16.10
2022-09-24T07:57:13.573Z,16.10
2022-09-24T07:59:41.780Z,16.20
2022-09-24T08:02:17.328Z,16.20
2022-09-24T08:04:45.158Z,16.80
2022-09-24T08:07:13.500Z,16.30
2022-09-24T08:09:40.413Z,16.30
2022-09-24T08:12:08.371Z,16.40
2022-09-24T08:14:35.133Z,16.50
2022-09-24T08:17:02.767Z,16.50
2022-09-24T08:19:31.336Z,16.60
2022-09-24T08:21:58.601Z,16.60
2022-09-24T08:24:26.253Z,16.70
2022-09-24T08:26:53.266Z,16.70
2022-09-24T08:29:19.978Z,16.80
2022-09-24T08:31:46.797Z,16.90
2022-09-24T08:34:13.623Z,16.90
2022-09-24T08:36:42.949Z,16.90
2022-09-24T08:39:10.523Z,17.00
2022-09-24T08:41:55.988Z,16.90
2022-09-24T08:44:55.309Z,17.10
2022-09-24T08:47:39.930Z,17.10
2022-09-24T08:50:17.454Z,17.20
2022-09-24T08:52:54.262Z,17.20
2022-09-24T08:55:46.332Z,17.30
2022-09-24T08:58:48.870Z,17.30
2022-09-24T09:01:50.291Z,17.40
2022-09-24T09:04:28.745Z,17.50
2022-09-24T09:07:13.037Z,17.50
2022-09-24T09:10:01.235Z,17.60
2022-09-24T09:12:51.690Z,17.70
2022-09-24T09:15:25.544Z,17.70
2022-09-24T09:18:02.162Z,17.80
2022-09-24T09:20:32.753Z,17.90
2022-09-24T09:23:20.236Z,17.90
2022-09-24T09:25:56.140Z,18.00
2022-09-24T09:28:23.212Z,18.10
2022-09-24T09:31:34.623Z,18.10
2022-09-24T09:34:29.640Z,18.30
2022-09-24T09:37:33.871Z,18.40
2022-09-24T09:40:31.985Z,18.50
2022-09-24T09:43:09.318Z,18.60
2022-09-24T09:45:54.787Z,18.70
2022-09-24T09:48:26.805Z,18.70
2022-09-24T09:51:05.022Z,18.70
2022-09-24T09:53:32.423Z,18.70
2022-09-24T09:56:07.425Z,18.80
2022-09-24T09:58:40.018Z,18.90
2022-09-24T10:01:14.637Z,19.00
2022-09-24T10:03:44.743Z,19.00
2022-09-24T10:06:22.087Z,19.10
2022-09-24T10:08:48.931Z,19.10
2022-09-24T10:11:17.591Z,19.20
2022-09-24T10:13:45.605Z,19.20
2022-09-24T10:16:15.817Z,19.20
2022-09-24T10:18:47.575Z,19.20
2022-09-24T10:21:34.443Z,19.30
2022-09-24T10:24:12.438Z,19.30
2022-09-24T10:26:45.461Z,19.40
2022-09-24T10:29:42.638Z,19.40
2022-09-24T10:32:25.291Z,19.40
2022-09-24T10:34:58.610Z,19.40
2022-09-24T10:37:26.100Z,19.50
2022-09-24T10:40:13.321Z,19.50
2022-09-24T10:42:41.290Z,19.50
2022-09-24T10:45:15.088Z,19.50
2022-09-24T10:48:01.738Z,19.60
2022-09-24T10:51:06.606Z,19.60
2022-09-24T10:54:03.625Z,19.70
2022-09-24T10:56:53.647Z,19.80
2022-09-24T10:59:51.344Z,19.80
2022-09-24T11:02:55.241Z,19.90
2022-09-24T11:05:23.816Z,20.00
2022-09-24T11:08:31.798Z,20.10
2022-09-24T11:11:21.950Z,20.10
2022-09-24T11:14:23.156Z,20.20
2022-09-24T11:17:16.272Z,20.20
2022-09-24T11:20:18.969Z,20.30
2022-09-24T11:23:28.608Z,20.30
2022-09-24T11:26:58.170Z,20.40
2022-09-24T11:29:46.488Z,20.50
2022-09-24T11:33:01.880Z,20.60
2022-09-24T11:36:25.174Z,20.70
2022-09-24T11:39:41.934Z,20.70
2022-09-24T11:42:31.406Z,20.80
2022-09-24T11:45:28.674Z,20.90
2022-09-24T11:48:32.654Z,21.00
2022-09-24T11:51:36.879Z,21.10
2022-09-24T11:54:19.499Z,21.10
2022-09-24T11:56:57.492Z,21.20
2022-09-24T12:00:00.771Z,21.30
2022-09-24T12:02:37.673Z,21.30
2022-09-24T12:05:20.325Z,21.40
2022-09-24T12:08:15.046Z,21.40
2022-09-24T12:11:12.496Z,21.50
2022-09-24T12:13:52.549Z,21.50
2022-09-24T12:16:26.932Z,21.50
2022-09-24T12:19:09.466Z,21.50
2022-09-24T12:21:43.245Z,21.50
2022-09-24T12:24:30.162Z,21.40
2022-09-24T12:27:01.167Z,21.40
2022-09-24T12:29:56.415Z,21.40
2022-09-24T12:32:54.562Z,21.30
2022-09-24T12:35:28.808Z,21.20
2022-09-24T12:38:04.884Z,21.20
2022-09-24T12:41:25.573Z,21.10
2022-09-24T12:44:09.861Z,21.10
2022-09-24T12:46:56.514Z,21.00
2022-09-24T12:49:26.100Z,21.00
2022-09-24T12:52:43.849Z,21.00
2022-09-24T12:55:25.255Z,20.90
2022-09-24T12:58:25.798Z,20.90
2022-09-24T13:01:04.445Z,21.00
2022-09-24T13:03:41.947Z,21.00
2022-09-24T13:06:34.790Z,21.00
2022-09-24T13:09:25.811Z,21.10
2022-09-24T13:12:20.685Z,21.20
2022-09-24T13:15:02.573Z,21.20
2022-09-24T13:17:33.318Z,21.30
2022-09-24T13:20:08.326Z,21.30
2022-09-24T13:22:37.352Z,21.40
2022-09-24T13:25:10.443Z,21.40
2022-09-24T13:27:43.042Z,21.40
2022-09-24T13:30:21.168Z,21.40
2022-09-24T13:33:02.448Z,21.40
2022-09-24T13:35:35.282Z,21.40
2022-09-24T13:38:26.833Z,21.40
2022-09-24T13:41:12.983Z,21.50
2022-09-24T13:43:47.000Z,21.50
2022-09-24T13:46:18.448Z,21.50
2022-09-24T13:49:03.492Z,21.50
2022-09-24T13:51:36.426Z,21.40
2022-09-24T13:54:26.596Z,21.40
2022-09-24T13:57:25.965Z,21.40
2022-09-24T14:00:13.989Z,21.40
2022-09-24T14:02:41.234Z,21.40
2022-09-24T14:05:17.381Z,21.40
2022-09-24T14:08:04.659Z,21.40
2022-09-24T14:10:32.767Z,21.40
2022-09-24T14:13:23.847Z,21.40
2022-09-24T14:15:56.191Z,21.40
2022-09-24T14:18:24.453Z,21.40
2022-09-24T14:21:33.251Z,21.40
2022-09-24T14:24:32.217Z,21.40
2022-09-24T14:27:06.007Z,21.40
2022-09-24T14:29:48.325Z,21.40
2022-09-24T14:32:28.273Z,21.40
2022-09-24T14:35:03.501Z,21.40
2022-09-24T14:37:35.547Z,21.40
2022-09-24T14:40:17.555Z,21.30
2022-09-24T14:43:02.117Z,21.30
2022-09-24T14:45:34.826Z,21.30
2022-09-24T14:48:16.414Z,21.30
2022-09-24T14:50:43.516Z,21.30
2022-09-24T14:53:29.802Z,21.30
2022-09-24T14:55:57.474Z,21.30
2022-09-24T14:58:29.802Z,21.30
2022-09-24T15:01:13.878Z,21.30
2022-09-24T15:03:59.229Z,21.20
2022-09-24T15:06:30.017Z,21.20
2022-09-24T15:09:07.364Z,21.10
2022-09-24T15:11:43.207Z,21.10
2022-09-24T15:14:20.134Z,21.10
2022-09-24T15:16:47.642Z,21.00
2022-09-24T15:19:17.603Z,21.00
2022-09-24T15:21:45.899Z,21.00
2022-09-24T15:24:12.649Z,21.00
2022-09-24T15:26:43.778Z,20.90
2022-09-24T15:29:21.035Z,20.90
2022-09-24T15:31:47.873Z,20.80
2022-09-24T15:34:19.641Z,20.70
2022-09-24T15:36:55.833Z,20.70
2022-09-24T15:39:24.935Z,20.70
2022-09-24T15:41:51.684Z,20.60
2022-09-24T15:44:29.962Z,20.60
2022-09-24T15:47:00.539Z,20.60
2022-09-24T15:49:27.347Z,20.60
2022-09-24T15:52:24.233Z,20.50
2022-09-24T15:54:53.809Z,20.50
2022-09-24T15:57:22.542Z,20.50
2022-09-24T15:59:50.299Z,20.50
2022-09-24T16:02:21.639Z,20.40
2022-09-24T16:04:48.724Z,20.40
2022-09-24T16:07:15.450Z,20.30
2022-09-24T16:09:42.364Z,20.30
2022-09-24T16:12:15.236Z,20.10
2022-09-24T16:14:42.362Z,20.20
2022-09-24T16:17:09.354Z,20.20
2022-09-24T16:19:36.078Z,20.10
2022-09-24T16:22:03.199Z,20.10
2022-09-24T16:24:34.220Z,20.00
2022-09-24T16:27:01.873Z,20.00
2022-09-24T16:29:28.702Z,19.90
2022-09-24T16:31:55.415Z,19.90
2022-09-24T16:34:22.122Z,19.80
2022-09-24T16:36:48.883Z,19.80
2022-09-24T16:39:19.361Z,19.80
2022-09-24T16:41:51.352Z,19.70
2022-09-24T16:44:19.236Z,19.60
2022-09-24T16:46:46.107Z,19.70
2022-09-24T16:49:12.909Z,19.60
2022-09-24T16:51:39.971Z,19.50
2022-09-24T16:54:06.778Z,19.30
2022-09-24T16:56:34.151Z,19.40
2022-09-24T16:59:00.876Z,19.40
2022-09-24T17:01:27.802Z,19.30
2022-09-24T17:03:57.061Z,19.30
2022-09-24T17:06:28.259Z,19.30
2022-09-24T17:09:14.346Z,19.20
2022-09-24T17:11:41.887Z,19.10
2022-09-24T17:14:12.264Z,19.10
2022-09-24T17:16:41.417Z,19.00
2022-09-24T17:19:10.390Z,19.00
2022-09-24T17:21:39.935Z,19.00
2022-09-24T17:24:07.995Z,18.90
2022-09-24T17:26:35.547Z,18.90
2022-09-24T17:29:02.352Z,18.90
2022-09-24T17:31:29.200Z,18.80
2022-09-24T17:33:56.409Z,18.80
2022-09-24T17:36:23.917Z,18.80
2022-09-24T17:38:51.851Z,18.70
2022-09-24T17:41:19.544Z,18.70
2022-09-24T17:43:46.300Z,18.70
2022-09-24T17:46:21.786Z,18.70
2022-09-24T17:48:52.294Z,18.60
2022-09-24T17:51:36.146Z,18.60
2022-09-24T17:54:15.645Z,18.60
2022-09-24T17:56:42.557Z,18.60
2022-09-24T17:59:12.969Z,18.50
2022-09-24T18:01:43.028Z,18.50
2022-09-24T18:04:16.831Z,18.50
2022-09-24T18:06:45.886Z,18.50
2022-09-24T18:09:15.360Z,18.40
2022-09-24T18:11:46.346Z,18.40
2022-09-24T18:14:19.779Z,18.40
2022-09-24T18:16:47.033Z,18.40
2022-09-24T18:19:16.864Z,18.30
2022-09-24T18:21:45.507Z,18.30
2022-09-24T18:24:12.888Z,18.30
2022-09-24T18:26:40.557Z,18.30
2022-09-24T18:29:17.652Z,18.30
2022-09-24T18:31:45.357Z,18.20
2022-09-24T18:34:15.298Z,18.20
2022-09-24T18:36:44.037Z,18.20
2022-09-24T18:39:14.134Z,18.20
2022-09-24T18:41:44.265Z,18.10
2022-09-24T18:44:11.542Z,18.10
2022-09-24T18:46:39.485Z,18.10
2022-09-24T18:49:06.973Z,18.10
2022-09-24T18:51:37.986Z,18.00
2022-09-24T18:54:14.062Z,18.00
2022-09-24T18:56:41.339Z,18.00
2022-09-24T18:59:14.906Z,18.00
2022-09-24T19:01:43.117Z,17.90
2022-09-24T19:04:13.393Z,17.90
2022-09-24T19:06:44.331Z,17.90
2022-09-24T19:09:13.953Z,17.80
2022-09-24T19:11:41.779Z,17.90
2022-09-24T19:14:09.110Z,17.80
2022-09-24T19:16:36.021Z,17.80
2022-09-24T19:19:02.823Z,17.60
2022-09-24T19:21:30.538Z,17.80
2022-09-24T19:23:59.167Z,17.80
2022-09-24T19:26:29.862Z,17.70
2022-09-24T19:28:57.421Z,17.70
2022-09-24T19:31:37.104Z,17.70
2022-09-24T19:34:06.679Z,17.80
2022-09-24T19:36:43.779Z,17.70
2022-09-24T19:39:14.056Z,17.60
2022-09-24T19:41:41.029Z,17.60
2022-09-24T19:44:09.350Z,17.60
2022-09-24T19:46:38.368Z,17.60
2022-09-24T19:49:06.092Z,17.60
2022-09-24T19:51:35.106Z,17.60
2022-09-24T19:54:07.980Z,17.60
2022-09-24T19:56:36.441Z,17.50
2022-09-24T19:59:04.589Z,17.60
2022-09-24T20:01:33.095Z,17.60
2022-09-24T20:04:05.316Z,17.50
2022-09-24T20:06:34.690Z,17.50
2022-09-24T20:09:02.389Z,17.50
2022-09-24T20:11:32.255Z,17.50
2022-09-24T20:13:59.335Z,17.50
2022-09-24T20:16:27.877Z,17.40
2022-09-24T20:18:57.604Z,17.40
2022-09-24T20:21:27.924Z,17.50
2022-09-24T20:23:57.793Z,17.40
2022-09-24T20:26:44.820Z,17.40
2022-09-24T20:29:13.796Z,17.40
2022-09-24T20:31:51.247Z,17.30
2022-09-24T20:34:21.215Z,17.30
2022-09-24T20:36:48.669Z,17.40
2022-09-24T20:39:15.489Z,17.30
2022-09-24T20:41:42.770Z,17.30
2022-09-24T20:44:09.887Z,17.30
2022-09-24T20:46:36.822Z,17.30
2022-09-24T20:49:03.642Z,17.20
2022-09-24T20:51:33.631Z,17.20
2022-09-24T20:54:00.864Z,17.20
2022-09-24T20:56:30.437Z,17.20
2022-09-24T20:58:57.447Z,17.30
2022-09-24T21:01:24.969Z,17.10
2022-09-24T21:03:52.839Z,17.10
2022-09-24T21:06:23.482Z,17.10
2022-09-24T21:08:51.563Z,17.00
2022-09-24T21:11:22.032Z,17.10
2022-09-24T21:13:53.501Z,17.10
2022-09-24T21:16:24.194Z,17.10
2022-09-24T21:18:54.369Z,17.10
2022-09-24T21:21:26.180Z,17.10
2022-09-24T21:23:56.772Z,17.20
2022-09-24T21:26:32.741Z,17.10
2022-09-24T21:29:11.257Z,17.10
2022-09-24T21:31:40.132Z,17.20
2022-09-24T21:34:08.435Z,17.20
2022-09-24T21:36:45.749Z,17.20
2022-09-24T21:39:17.389Z,17.20
2022-09-24T21:41:45.855Z,17.60
2022-09-24T21:44:14.740Z,17.20
2022-09-24T21:46:43.730Z,17.20
2022-09-24T21:49:11.842Z,17.10
2022-09-24T21:51:39.601Z,17.20
2022-09-24T21:54:10.674Z,17.20
2022-09-24T21:56:37.443Z,17.20
2022-09-24T21:59:24.414Z,17.20
2022-09-24T22:01:51.322Z,17.10
2022-09-24T22:04:18.356Z,17.10
2022-09-24T22:06:45.169Z,17.10
2022-09-24T22:09:11.914Z,17.10
2022-09-24T22:11:38.870Z,17.20
2022-09-24T22:14:05.657Z,17.10
2022-09-24T22:16:36.151Z,17.00
2022-09-24T22:19:06.011Z,17.00
2022-09-24T22:21:33.573Z,17.00
2022-09-24T22:24:00.995Z,17.00
2022-09-24T22:26:29.552Z,17.00
2022-09-24T22:28:57.161Z,17.00
2022-09-24T22:31:25.232Z,16.90
2022-09-24T22:34:11.028Z,16.90
2022-09-24T22:36:37.930Z,17.00
2022-09-24T22:39:07.066Z,16.90
2022-09-24T22:41:38.154Z,16.90
2022-09-24T22:44:06.193Z,16.90
2022-09-24T22:46:35.895Z,16.80
2022-09-24T22:49:05.219Z,16.90
2022-09-24T22:51:32.562Z,16.90
2022-09-24T22:54:00.147Z,16.90
2022-09-24T22:56:28.571Z,16.80
2022-09-24T22:58:59.307Z,16.90
2022-09-24T23:01:38.963Z,16.70
2022-09-24T23:04:06.291Z,16.80
2022-09-24T23:06:34.628Z,16.80
2022-09-24T23:09:02.080Z,16.70
2022-09-24T23:11:34.392Z,16.80
2022-09-24T23:14:05.981Z,16.80
2022-09-24T23:16:35.980Z,16.80
2022-09-24T23:19:13.678Z,16.70
2022-09-24T23:21:40.479Z,16.70
2022-09-24T23:24:17.544Z,16.80
2022-09-24T23:26:45.815Z,16.70
2022-09-24T23:29:14.432Z,16.70
2022-09-24T23:31:42.273Z,16.80
2022-09-24T23:34:12.327Z,16.80
2022-09-24T23:36:39.121Z,16.70
2022-09-24T23:39:06.023Z,16.80
2022-09-24T23:41:32.883Z,16.80
2022-09-24T23:44:00.349Z,16.80
2022-09-24T23:46:28.042Z,16.80
2022-09-24T23:48:55.688Z,16.80
2022-09-24T23:51:22.627Z,16.80
2022-09-24T23:53:49.382Z,16.80
2022-09-24T23:56:16.361Z,16.90
2022-09-24T23:58:43.088Z,16.90
